Time;durP1;ratioP1;P1;durP2;ratioP2;P2;SDS_P1;SDS_P2;PMS_P1;PMS_P2;Temp;Humidity;BMP_temperature;BMP_pressure;BME280_temperature;BME280_humidity;BME280_pressure;Samples;Min_cycle;Max_cycle;Signal;HPM_P1;HPM_P2
2023/06/18 00:01:30;;;;;;;20.55;14.43;;;18.00;99.90;;;;;;5094043;28;20424;-63
2023/06/18 00:03:57;;;;;;;17.02;13.60;;;18.00;99.90;;;;;;5093682;28;20048;-61
2023/06/18 00:06:23;;;;;;;20.33;14.23;;;17.90;99.90;;;;;;5093698;28;20157;-62
2023/06/18 00:08:49;;;;;;;18.30;13.38;;;17.90;99.90;;;;;;5091850;28;20467;-62
2023/06/18 00:11:15;;;;;;;19.17;13.23;;;17.80;99.90;;;;;;5093801;28;20059;-63
2023/06/18 00:13:42;;;;;;;16.60;13.00;;;17.80;99.90;;;;;;5093492;28;20044;-62
2023/06/18 00:16:08;;;;;;;19.70;13.07;;;17.80;99.90;;;;;;5094094;28;20044;-60
2023/06/18 00:18:34;;;;;;;19.42;13.18;;;17.70;99.90;;;;;;5093950;28;20063;-61
2023/06/18 00:21:03;;;;;;;19.52;14.43;;;17.70;99.90;;;;;;5093713;28;20044;-63
2023/06/18 00:23:29;;;;;;;17.63;13.95;;;17.70;99.90;;;;;;5093327;28;20055;-61
2023/06/18 00:25:55;;;;;;;16.90;13.93;;;17.60;99.90;;;;;;5093651;28;20109;-63
2023/06/18 00:28:22;;;;;;;19.27;13.85;;;17.60;99.90;;;;;;5093216;28;20481;-61
2023/06/18 00:30:48;;;;;;;20.10;14.93;;;17.60;99.90;;;;;;5093359;28;20070;-63
2023/06/18 00:33:14;;;;;;;18.98;14.00;;;17.50;99.90;;;;;;5093011;28;20463;-62
2023/06/18 00:35:42;;;;;;;21.70;14.48;;;17.40;99.90;;;;;;5093487;28;20125;-63
2023/06/18 00:38:09;;;;;;;19.85;14.52;;;17.40;99.90;;;;;;5093469;28;20067;-63
2023/06/18 00:40:35;;;;;;;19.02;14.55;;;17.40;99.90;;;;;;5093810;28;20048;-63
2023/06/18 00:43:03;;;;;;;18.95;15.18;;;17.30;99.90;;;;;;5093271;28;20048;-63
2023/06/18 00:45:30;;;;;;;21.15;14.27;;;17.40;99.90;;;;;;5093574;28;20060;-63
2023/06/18 00:47:57;;;;;;;20.27;14.95;;;17.40;99.90;;;;;;5093097;28;20411;-61
2023/06/18 00:50:26;;;;;;;21.63;14.98;;;17.30;99.90;;;;;;5092201;28;20441;-62
2023/06/18 00:52:59;;;;;;;21.17;14.48;;;17.30;99.90;;;;;;5092902;28;20043;-63
2023/06/18 00:55:29;;;;;;;21.55;15.30;;;17.20;99.90;;;;;;5093179;28;20044;-61
2023/06/18 00:57:59;;;;;;;21.60;14.48;;;17.20;99.90;;;;;;5092370;28;20082;-63
2023/06/18 01:00:28;;;;;;;21.48;16.13;;;17.20;99.90;;;;;;5094956;28;20101;-63
2023/06/18 01:02:55;;;;;;;19.15;15.02;;;17.20;99.90;;;;;;5099908;28;20058;-62
2023/06/18 01:05:23;;;;;;;23.23;16.13;;;17.20;99.90;;;;;;5100193;28;20056;-62
2023/06/18 01:07:49;;;;;;;23.35;15.95;;;17.10;99.90;;;;;;5099466;28;20056;-62
2023/06/18 01:10:20;;;;;;;22.60;16.60;;;17.10;99.90;;;;;;5099611;28;20458;-62
2023/06/18 01:12:48;;;;;;;20.52;15.65;;;17.10;99.90;;;;;;5099462;28;20105;-62
2023/06/18 01:15:20;;;;;;;23.55;17.58;;;17.00;99.90;;;;;;5100178;28;20055;-61
2023/06/18 01:17:49;;;;;;;24.45;16.70;;;17.10;99.90;;;;;;5099867;28;20067;-63
2023/06/18 01:20:17;;;;;;;24.48;16.88;;;17.00;99.90;;;;;;5099642;28;20101;-62
2023/06/18 01:23:01;;;;;;;23.67;17.08;;;16.90;99.90;;;;;;5099557;28;20051;-62
2023/06/18 01:25:32;;;;;;;22.27;16.98;;;16.90;99.90;;;;;;5099829;28;20464;-63
2023/06/18 01:28:07;;;;;;;23.13;17.27;;;16.80;99.90;;;;;;5099553;28;20058;-63
2023/06/18 01:30:37;;;;;;;25.45;17.63;;;16.80;99.90;;;;;;5099500;28;20067;-63
2023/06/18 01:33:04;;;;;;;25.23;17.77;;;16.80;99.90;;;;;;5099561;28;20083;-63
2023/06/18 01:35:30;;;;;;;24.85;18.27;;;16.80;99.90;;;;;;5099532;28;20105;-62
2023/06/18 01:38:09;;;;;;;23.35;17.60;;;16.70;99.90;;;;;;5099753;28;20400;-63
2023/06/18 01:41:08;;;;;;;24.55;17.30;;;16.60;99.90;;;;;;5100088;28;20048;-63
2023/06/18 01:43:53;;;;;;;24.23;17.83;;;16.60;99.90;;;;;;5088888;28;20098;-62
2023/06/18 01:46:24;;;;;;;23.42;18.55;;;16.60;99.90;;;;;;5089656;28;20056;-64
2023/06/18 01:48:58;;;;;;;25.13;19.23;;;16.60;99.90;;;;;;5088003;28;20055;-63
2023/06/18 01:51:27;;;;;;;27.25;19.25;;;16.60;99.90;;;;;;5087632;28;20465;-62
2023/06/18 01:53:56;;;;;;;26.60;20.02;;;16.60;99.90;;;;;;5088881;28;20078;-62
2023/06/18 01:56:23;;;;;;;24.90;18.50;;;16.50;99.90;;;;;;5087400;28;20036;-62
2023/06/18 01:58:50;;;;;;;26.27;19.27;;;16.60;99.90;;;;;;5087005;28;20055;-61
2023/06/18 02:01:17;;;;;;;25.15;19.25;;;16.60;99.90;;;;;;5087735;28;20093;-63
2023/06/18 02:03:43;;;;;;;26.75;20.35;;;16.50;99.90;;;;;;5087334;28;20052;-62
2023/06/18 02:06:09;;;;;;;27.70;20.08;;;16.50;99.90;;;;;;5090007;28;20048;-63
2023/06/18 02:08:35;;;;;;;28.75;20.25;;;16.50;99.90;;;;;;5086809;28;20044;-62
2023/06/18 02:11:02;;;;;;;26.75;19.88;;;16.50;99.90;;;;;;5089829;28;20040;-62
2023/06/18 02:13:29;;;;;;;27.65;19.88;;;16.40;99.90;;;;;;5084376;28;20483;-62
2023/06/18 02:15:55;;;;;;;25.30;19.55;;;16.50;99.90;;;;;;5087668;28;20044;-61
2023/06/18 02:18:21;;;;;;;26.40;19.45;;;16.40;99.90;;;;;;5087053;28;20040;-61
2023/06/18 02:20:47;;;;;;;24.50;19.02;;;16.40;99.90;;;;;;5084276;28;20048;-63
2023/06/18 02:23:14;;;;;;;27.65;18.85;;;16.40;99.90;;;;;;5086022;28;20040;-63
2023/06/18 02:25:44;;;;;;;24.52;19.13;;;16.30;99.90;;;;;;5085105;28;20399;-63
2023/06/18 02:28:10;;;;;;;25.67;19.92;;;16.40;99.90;;;;;;5083694;28;20055;-62
2023/06/18 02:30:37;;;;;;;26.23;19.40;;;16.40;99.90;;;;;;5085738;28;20108;-61
2023/06/18 02:33:06;;;;;;;27.30;19.60;;;16.30;99.90;;;;;;5081925;28;20508;-63
2023/06/18 02:35:33;;;;;;;26.33;19.25;;;16.30;99.90;;;;;;5084721;28;20051;-60
2023/06/18 02:37:59;;;;;;;25.42;18.27;;;16.20;99.90;;;;;;5086522;28;20102;-62
2023/06/18 02:40:26;;;;;;;26.63;18.92;;;16.10;99.90;;;;;;5086993;28;20044;-62
2023/06/18 02:42:52;;;;;;;29.98;19.80;;;16.20;99.90;;;;;;5084978;28;20444;-63
2023/06/18 02:45:21;;;;;;;28.33;20.92;;;16.10;99.90;;;;;;5089325;28;20040;-61
2023/06/18 02:47:49;;;;;;;25.85;18.92;;;16.20;99.90;;;;;;5086638;28;20048;-64
2023/06/18 02:50:16;;;;;;;27.75;20.73;;;16.10;99.90;;;;;;5084030;28;20102;-61
2023/06/18 02:52:43;;;;;;;28.63;20.52;;;16.00;99.90;;;;;;5080458;28;20052;-62
2023/06/18 02:55:11;;;;;;;28.27;20.27;;;16.00;99.90;;;;;;5085659;28;20048;-62
2023/06/18 02:57:39;;;;;;;27.48;20.00;;;16.00;99.90;;;;;;5086563;28;20040;-64
2023/06/18 03:00:11;;;;;;;26.65;19.63;;;16.00;99.90;;;;;;5092844;28;20056;-60
2023/06/18 03:02:39;;;;;;;29.02;20.33;;;15.90;99.90;;;;;;5095147;28;20380;-63
2023/06/18 03:05:06;;;;;;;29.20;20.13;;;15.90;99.90;;;;;;5094881;28;20573;-61
2023/06/18 03:07:33;;;;;;;29.48;20.27;;;15.90;99.90;;;;;;5093373;28;20032;-60
2023/06/18 03:09:59;;;;;;;27.20;19.70;;;16.00;99.90;;;;;;5094779;28;20651;-62
2023/06/18 03:12:26;;;;;;;26.40;20.25;;;16.00;99.90;;;;;;5094753;28;20044;-62
2023/06/18 03:14:52;;;;;;;28.80;19.85;;;15.90;99.90;;;;;;5095188;28;20055;-62
2023/06/18 03:17:18;;;;;;;26.63;19.42;;;16.10;99.90;;;;;;5095445;28;20044;-62
2023/06/18 03:19:44;;;;;;;25.63;19.13;;;16.00;99.90;;;;;;5095103;28;20047;-63
2023/06/18 03:22:11;;;;;;;27.33;18.75;;;16.10;99.90;;;;;;5094406;28;20044;-63
2023/06/18 03:24:38;;;;;;;27.27;20.00;;;16.20;99.90;;;;;;5094572;28;20052;-62
2023/06/18 03:27:05;;;;;;;27.15;19.55;;;16.20;99.90;;;;;;5094954;28;20067;-62
2023/06/18 03:29:34;;;;;;;27.65;19.05;;;16.30;99.90;;;;;;5094806;28;20071;-62
2023/06/18 03:32:01;;;;;;;28.15;20.38;;;16.30;99.90;;;;;;5094050;28;20056;-63
2023/06/18 03:34:27;;;;;;;26.65;18.30;;;16.40;99.90;;;;;;5094623;28;20105;-62
2023/06/18 03:36:53;;;;;;;27.42;19.55;;;16.40;99.90;;;;;;5094478;28;20048;-62
2023/06/18 03:39:20;;;;;;;26.98;19.45;;;16.50;99.90;;;;;;5094392;28;20043;-61
2023/06/18 03:41:46;;;;;;;27.75;19.48;;;16.50;99.90;;;;;;5094123;28;20056;-64
2023/06/18 03:44:13;;;;;;;27.60;19.52;;;16.60;99.90;;;;;;5094592;28;20055;-63
2023/06/18 03:46:39;;;;;;;28.45;19.55;;;16.60;99.90;;;;;;5094335;28;20063;-64
2023/06/18 03:49:05;;;;;;;26.23;18.83;;;16.60;99.90;;;;;;5094593;28;20101;-61
2023/06/18 03:51:31;;;;;;;29.63;19.80;;;16.70;99.90;;;;;;5094482;28;20116;-62
2023/06/18 03:53:58;;;;;;;25.98;18.88;;;16.70;99.90;;;;;;5094208;28;20390;-62
2023/06/18 03:56:24;;;;;;;27.38;19.30;;;16.80;99.90;;;;;;5094268;28;20055;-62
2023/06/18 03:58:50;;;;;;;26.13;18.83;;;16.90;99.90;;;;;;5094298;28;20044;-62
2023/06/18 04:01:16;;;;;;;27.13;19.67;;;16.90;99.90;;;;;;5094025;28;20476;-63
2023/06/18 04:03:43;;;;;;;27.30;19.17;;;17.00;99.90;;;;;;5094015;28;20044;-61
2023/06/18 04:06:09;;;;;;;28.77;19.30;;;17.00;99.90;;;;;;5093974;28;20048;-64
2023/06/18 04:08:36;;;;;;;26.75;19.77;;;17.10;99.90;;;;;;5092744;28;20054;-63
2023/06/18 04:11:03;;;;;;;27.45;19.25;;;17.10;99.90;;;;;;5094056;28;20109;-62
2023/06/18 04:13:29;;;;;;;26.85;17.85;;;17.10;99.90;;;;;;5093424;28;20067;-63
2023/06/18 04:15:57;;;;;;;28.75;19.42;;;17.20;99.90;;;;;;5093908;28;20040;-63
2023/06/18 04:18:25;;;;;;;29.58;18.60;;;17.30;99.90;;;;;;5093993;28;20055;-61
2023/06/18 04:20:51;;;;;;;26.38;18.65;;;17.30;99.90;;;;;;5093930;28;20162;-62
2023/06/18 04:23:17;;;;;;;24.50;18.88;;;17.40;99.90;;;;;;5093068;28;20353;-63
2023/06/18 04:25:44;;;;;;;27.15;19.23;;;17.40;99.90;;;;;;5094146;28;20055;-61
2023/06/18 04:28:10;;;;;;;26.63;19.35;;;17.40;99.90;;;;;;5093864;28;20052;-63
2023/06/18 04:30:36;;;;;;;22.92;19.80;;;17.40;99.90;;;;;;5093808;28;20048;-63
2023/06/18 04:33:03;;;;;;;29.33;20.25;;;17.40;99.90;;;;;;5093585;28;20147;-63
2023/06/18 04:35:29;;;;;;;26.13;19.80;;;17.40;99.90;;;;;;5092833;28;20059;-61
2023/06/18 04:37:55;;;;;;;26.13;18.70;;;17.40;99.90;;;;;;5092982;28;20442;-61
2023/06/18 04:40:22;;;;;;;25.75;19.25;;;17.40;99.90;;;;;;5093422;28;20044;-62
2023/06/18 04:42:48;;;;;;;26.30;20.08;;;17.50;99.90;;;;;;5093158;28;20040;-63
2023/06/18 04:45:14;;;;;;;26.60;19.40;;;17.50;99.90;;;;;;5093543;28;20063;-63
2023/06/18 04:47:40;;;;;;;25.45;18.73;;;17.60;99.90;;;;;;5093071;28;20047;-62
2023/06/18 04:50:08;;;;;;;24.92;18.85;;;17.60;99.90;;;;;;5093181;28;20508;-62
2023/06/18 04:52:35;;;;;;;25.65;19.65;;;17.70;99.90;;;;;;5093433;28;20055;-62
2023/06/18 04:55:01;;;;;;;31.48;20.27;;;17.80;99.90;;;;;;5093131;28;20460;-60
2023/06/18 04:57:27;;;;;;;27.60;19.52;;;17.90;99.90;;;;;;5093382;28;20081;-61
2023/06/18 04:59:54;;;;;;;26.63;20.02;;;18.20;99.90;;;;;;5093421;28;20044;-63
2023/06/18 05:02:20;;;;;;;27.25;19.75;;;18.60;99.90;;;;;;5093058;28;20048;-63
2023/06/18 05:04:47;;;;;;;24.75;18.70;;;19.00;99.90;;;;;;5092796;28;20517;-62
2023/06/18 05:07:13;;;;;;;23.75;19.30;;;19.40;99.90;;;;;;5092323;28;20052;-62
2023/06/18 05:09:40;;;;;;;27.73;19.58;;;19.80;99.90;;;;;;5092726;28;20040;-61
2023/06/18 05:12:07;;;;;;;24.45;19.05;;;19.80;99.90;;;;;;5092911;28;20052;-62
2023/06/18 05:14:34;;;;;;;28.50;18.33;;;19.80;99.90;;;;;;5092975;28;20048;-62
2023/06/18 05:17:00;;;;;;;25.25;19.52;;;19.60;99.90;;;;;;5092939;28;20266;-62
2023/06/18 05:19:27;;;;;;;24.58;19.48;;;19.40;99.90;;;;;;5092655;28;20441;-61
2023/06/18 05:21:53;;;;;;;30.50;20.70;;;19.20;99.90;;;;;;5092350;28;20364;-62
2023/06/18 05:24:19;;;;;;;25.83;18.88;;;19.20;99.90;;;;;;5093012;28;20040;-60
2023/06/18 05:26:45;;;;;;;27.10;19.30;;;19.10;99.90;;;;;;5092945;28;20047;-63
2023/06/18 05:29:13;;;;;;;25.88;19.60;;;19.10;99.90;;;;;;5092565;28;20052;-64
2023/06/18 05:31:39;;;;;;;26.17;19.42;;;19.00;99.90;;;;;;5092139;28;20378;-62
2023/06/18 05:34:05;;;;;;;28.40;20.13;;;19.00;99.90;;;;;;5093028;28;20048;-61
2023/06/18 05:36:32;;;;;;;26.83;19.35;;;19.00;99.90;;;;;;5092869;28;20044;-64
2023/06/18 05:39:02;;;;;;;25.90;18.85;;;19.00;99.90;;;;;;5092850;28;20051;-63
2023/06/18 05:41:28;;;;;;;26.60;19.67;;;18.90;99.90;;;;;;5092829;28;20109;-64
2023/06/18 05:43:55;;;;;;;25.42;19.58;;;18.90;99.90;;;;;;5092857;28;20055;-62
2023/06/18 05:46:21;;;;;;;27.25;19.52;;;18.90;99.90;;;;;;5092897;28;20105;-63
2023/06/18 05:48:47;;;;;;;24.90;20.05;;;18.90;99.90;;;;;;5096480;28;20052;-63
2023/06/18 05:51:13;;;;;;;25.58;19.52;;;18.90;99.90;;;;;;5096572;28;20052;-63
2023/06/18 05:53:40;;;;;;;25.10;19.17;;;19.00;99.90;;;;;;5096364;28;20052;-63
2023/06/18 05:56:06;;;;;;;26.25;19.48;;;19.20;99.90;;;;;;5096598;28;20048;-62
2023/06/18 05:58:32;;;;;;;26.80;18.77;;;19.40;99.90;;;;;;5095873;28;20040;-63
2023/06/18 06:00:58;;;;;;;26.70;19.92;;;19.50;99.90;;;;;;5096440;28;20052;-62
2023/06/18 06:03:25;;;;;;;25.65;19.58;;;19.90;99.90;;;;;;5095995;28;20048;-62
2023/06/18 06:05:51;;;;;;;26.45;19.55;;;20.60;99.90;;;;;;5096252;28;20109;-63
2023/06/18 06:08:18;;;;;;;25.95;19.30;;;21.00;99.90;;;;;;5094831;28;20051;-63
2023/06/18 06:10:44;;;;;;;24.60;19.13;;;21.50;99.90;;;;;;5096491;28;20049;-62
2023/06/18 06:13:10;;;;;;;26.40;20.13;;;21.90;99.90;;;;;;5095786;28;20102;-63
2023/06/18 06:15:37;;;;;;;26.15;19.70;;;22.30;99.90;;;;;;5096056;28;20040;-62
2023/06/18 06:18:03;;;;;;;26.55;19.70;;;22.90;99.90;;;;;;5095885;28;20040;-63
2023/06/18 06:20:29;;;;;;;24.50;18.67;;;23.20;99.90;;;;;;5095826;28;20080;-62
2023/06/18 06:22:56;;;;;;;24.88;18.80;;;23.40;99.90;;;;;;5095564;28;20044;-63
2023/06/18 06:25:22;;;;;;;23.52;19.17;;;23.80;99.90;;;;;;5095872;28;20105;-64
2023/06/18 06:27:48;;;;;;;21.45;17.67;;;24.10;99.90;;;;;;5095587;28;20112;-64
2023/06/18 06:30:14;;;;;;;23.88;18.55;;;24.30;99.90;;;;;;5095749;28;20129;-63
2023/06/18 06:32:41;;;;;;;21.58;17.80;;;24.50;99.90;;;;;;5095480;28;20113;-63
2023/06/18 06:35:07;;;;;;;26.05;18.67;;;24.40;99.90;;;;;;5095403;28;20478;-62
2023/06/18 06:37:33;;;;;;;24.17;18.98;;;23.80;99.90;;;;;;5095476;28;20177;-64
2023/06/18 06:40:00;;;;;;;24.67;17.85;;;23.50;99.90;;;;;;5095567;28;20044;-63
2023/06/18 06:42:26;;;;;;;24.73;18.80;;;23.20;99.90;;;;;;5095210;28;20052;-63
2023/06/18 06:44:52;;;;;;;25.38;18.88;;;22.90;99.90;;;;;;5095625;28;20036;-62
2023/06/18 06:47:18;;;;;;;25.92;19.13;;;22.70;99.90;;;;;;5085760;28;20437;-63
2023/06/18 06:49:45;;;;;;;24.73;19.33;;;22.60;99.90;;;;;;5085659;28;20079;-63
2023/06/18 06:52:11;;;;;;;23.73;18.85;;;22.40;99.90;;;;;;5084188;28;20055;-64
2023/06/18 06:54:38;;;;;;;26.30;18.85;;;22.50;99.90;;;;;;5083257;28;20048;-63
2023/06/18 06:57:04;;;;;;;24.40;19.48;;;22.70;99.90;;;;;;5085725;28;20044;-62
2023/06/18 06:59:30;;;;;;;21.50;16.90;;;23.10;99.90;;;;;;5082912;28;20036;-62
2023/06/18 07:01:57;;;;;;;24.50;18.88;;;23.50;99.90;;;;;;5084070;28;20041;-63
2023/06/18 07:04:23;;;;;;;21.27;17.35;;;23.70;99.90;;;;;;5083689;28;20473;-63
2023/06/18 07:06:50;;;;;;;24.45;19.45;;;23.80;99.90;;;;;;5085506;28;20321;-61
2023/06/18 07:09:16;;;;;;;24.30;17.30;;;23.90;99.90;;;;;;5082869;28;20052;-63
2023/06/18 07:11:43;;;;;;;21.17;17.83;;;24.10;99.90;;;;;;5083735;28;20461;-63
2023/06/18 07:14:10;;;;;;;24.98;18.75;;;24.20;99.90;;;;;;5085533;28;20048;-64
2023/06/18 07:16:36;;;;;;;21.90;18.02;;;24.30;99.90;;;;;;5080024;28;20040;-61
2023/06/18 07:19:03;;;;;;;20.77;16.58;;;24.20;99.90;;;;;;5081988;28;20349;-63
2023/06/18 07:21:30;;;;;;;19.80;15.93;;;24.10;99.90;;;;;;5082181;28;20090;-63
2023/06/18 07:23:56;;;;;;;21.55;16.38;;;24.20;99.90;;;;;;5074456;28;20048;-62
2023/06/18 07:26:23;;;;;;;20.50;16.05;;;24.20;99.90;;;;;;5074453;28;20052;-63
2023/06/18 07:28:49;;;;;;;22.75;17.15;;;24.20;99.90;;;;;;5085528;28;20055;-63
2023/06/18 07:31:15;;;;;;;23.17;16.52;;;24.20;99.90;;;;;;5093907;28;20120;-62
2023/06/18 07:33:41;;;;;;;25.42;15.63;;;24.30;99.90;;;;;;5084112;28;20091;-63
2023/06/18 07:36:08;;;;;;;19.90;15.85;;;24.30;99.90;;;;;;5074933;28;20059;-63
2023/06/18 07:38:34;;;;;;;18.85;15.60;;;24.40;99.90;;;;;;5082814;28;20074;-63
2023/06/18 07:41:01;;;;;;;21.45;16.63;;;24.30;99.90;;;;;;5083232;28;20036;-63
2023/06/18 07:43:27;;;;;;;22.50;15.18;;;24.30;99.90;;;;;;5093791;28;20105;-62
2023/06/18 07:45:53;;;;;;;19.10;14.95;;;24.20;99.90;;;;;;5087602;28;20045;-62
2023/06/18 07:48:20;;;;;;;19.05;15.50;;;24.30;99.90;;;;;;5081908;28;20048;-64
2023/06/18 07:50:46;;;;;;;17.33;14.50;;;24.40;99.90;;;;;;5091098;28;20044;-63
2023/06/18 07:53:12;;;;;;;19.30;13.82;;;24.50;99.90;;;;;;5093716;28;20059;-63
2023/06/18 07:55:39;;;;;;;17.27;14.20;;;24.60;99.90;;;;;;5087911;28;20051;-64
2023/06/18 07:58:05;;;;;;;19.33;14.98;;;24.60;99.90;;;;;;5093872;28;20051;-63
2023/06/18 08:00:31;;;;;;;18.77;15.27;;;24.70;99.90;;;;;;5094098;28;20064;-63
2023/06/18 08:02:57;;;;;;;20.63;15.75;;;24.50;99.90;;;;;;5093733;28;20044;-62
2023/06/18 08:05:25;;;;;;;22.42;15.18;;;24.80;99.90;;;;;;5087545;28;20570;-62
2023/06/18 08:07:51;;;;;;;21.30;15.18;;;24.80;99.90;;;;;;5092506;28;20051;-62
2023/06/18 08:10:17;;;;;;;19.80;15.00;;;25.00;99.90;;;;;;5093847;28;20097;-64
2023/06/18 08:12:43;;;;;;;17.98;14.10;;;25.10;99.90;;;;;;5093604;28;20054;-64
2023/06/18 08:15:10;;;;;;;19.88;16.05;;;25.20;99.90;;;;;;5093520;28;20060;-64
2023/06/18 08:17:36;;;;;;;20.38;16.02;;;25.10;99.90;;;;;;5082938;28;20040;-62
2023/06/18 08:20:04;;;;;;;18.50;14.88;;;25.10;99.90;;;;;;5085708;28;20044;-63
2023/06/18 08:22:30;;;;;;;20.23;15.50;;;25.20;99.90;;;;;;5082525;28;20040;-63
2023/06/18 08:24:57;;;;;;;20.55;15.10;;;25.30;99.90;;;;;;5084125;28;20164;-62
2023/06/18 08:27:23;;;;;;;22.55;16.30;;;25.20;99.90;;;;;;5082527;28;20040;-64
2023/06/18 08:29:49;;;;;;;19.85;16.23;;;25.40;99.90;;;;;;5084447;28;20106;-63
2023/06/18 08:32:15;;;;;;;19.42;15.68;;;25.40;99.90;;;;;;5078894;28;20106;-62
2023/06/18 08:34:42;;;;;;;17.52;15.00;;;25.40;99.90;;;;;;5072813;28;20407;-63
2023/06/18 08:37:12;;;;;;;18.98;14.57;;;25.60;99.90;;;;;;5074828;28;20045;-65
2023/06/18 08:39:39;;;;;;;20.88;15.65;;;25.70;99.90;;;;;;5090541;28;20071;-63
2023/06/18 08:42:06;;;;;;;17.33;13.65;;;26.00;99.90;;;;;;5083400;28;20361;-63
2023/06/18 08:44:36;;;;;;;20.85;14.45;;;26.10;99.90;;;;;;5076864;28;20078;-64
2023/06/18 08:47:03;;;;;;;18.52;13.60;;;26.20;99.90;;;;;;5073462;28;20048;-64
2023/06/18 08:49:31;;;;;;;17.27;14.52;;;26.30;99.90;;;;;;5089750;28;20411;-63
2023/06/18 08:52:00;;;;;;;16.08;13.80;;;26.20;99.90;;;;;;5084213;28;20047;-62
2023/06/18 08:54:33;;;;;;;15.93;12.57;;;26.30;99.90;;;;;;5081505;28;20105;-62
2023/06/18 08:57:15;;;;;;;16.33;13.82;;;26.50;99.90;;;;;;5079611;28;20041;-63
2023/06/18 08:59:43;;;;;;;17.10;13.98;;;26.70;99.50;;;;;;5074415;28;20052;-62
2023/06/18 09:02:12;;;;;;;16.45;13.02;;;26.70;99.60;;;;;;5071362;28;20044;-62
2023/06/18 09:04:39;;;;;;;16.55;13.45;;;27.20;99.50;;;;;;5071920;28;20056;-63
2023/06/18 09:07:07;;;;;;;15.95;12.07;;;27.50;99.50;;;;;;5071389;28;20052;-62
2023/06/18 09:09:33;;;;;;;15.68;12.45;;;27.80;99.20;;;;;;5088376;28;20059;-63
2023/06/18 09:12:00;;;;;;;15.48;12.40;;;28.00;98.50;;;;;;5090745;28;20341;-63
2023/06/18 09:14:27;;;;;;;15.10;11.50;;;28.00;98.70;;;;;;5091318;28;20047;-63
2023/06/18 09:16:54;;;;;;;13.30;10.40;;;28.20;98.70;;;;;;5090796;28;20445;-64
2023/06/18 09:19:21;;;;;;;11.85;9.75;;;28.30;98.10;;;;;;5090984;28;20044;-62
2023/06/18 09:21:47;;;;;;;11.15;9.38;;;28.40;96.80;;;;;;5091910;28;20113;-62
2023/06/18 09:24:20;;;;;;;12.40;10.02;;;28.50;96.70;;;;;;5096008;28;20044;-63
2023/06/18 09:27:04;;;;;;;12.25;10.15;;;28.60;96.40;;;;;;5096049;28;20059;-64
2023/06/18 09:29:33;;;;;;;12.02;10.20;;;28.80;96.00;;;;;;5095610;28;20052;-64
2023/06/18 09:32:11;;;;;;;12.65;10.93;;;28.80;96.00;;;;;;5094917;28;20048;-63
2023/06/18 09:34:38;;;;;;;12.60;10.18;;;29.00;95.80;;;;;;5095920;28;20051;-63
2023/06/18 09:37:06;;;;;;;12.70;9.80;;;29.00;96.00;;;;;;5096127;28;20048;-62
2023/06/18 09:39:33;;;;;;;14.82;10.38;;;29.00;95.70;;;;;;5095555;28;20248;-63
2023/06/18 09:42:09;;;;;;;13.10;10.82;;;29.00;95.30;;;;;;5095248;28;20055;-62
2023/06/18 09:44:36;;;;;;;12.23;10.27;;;29.10;95.60;;;;;;5095922;28;20659;-62
2023/06/18 09:47:10;;;;;;;11.30;9.98;;;29.30;95.30;;;;;;5092044;28;20427;-64
2023/06/18 09:49:37;;;;;;;14.25;10.35;;;29.20;95.60;;;;;;5092758;28;20470;-62
2023/06/18 09:52:05;;;;;;;12.73;10.15;;;29.30;96.00;;;;;;5095008;28;20052;-63
2023/06/18 09:54:43;;;;;;;12.93;10.32;;;29.20;95.70;;;;;;5081783;28;20508;-63
2023/06/18 09:57:11;;;;;;;10.60;9.50;;;29.10;95.00;;;;;;5074837;28;20051;-63
2023/06/18 09:59:38;;;;;;;11.75;10.57;;;29.10;95.70;;;;;;5092162;28;20051;-61
2023/06/18 10:02:05;;;;;;;11.38;10.15;;;29.00;95.50;;;;;;5093481;28;20439;-63
2023/06/18 10:04:34;;;;;;;13.90;10.00;;;29.00;95.60;;;;;;5094476;28;20055;-62
2023/06/18 10:07:05;;;;;;;12.60;11.00;;;28.90;95.60;;;;;;5092900;28;20502;-61
2023/06/18 10:09:41;;;;;;;10.85;9.30;;;28.70;95.30;;;;;;5094223;28;20063;-63
2023/06/18 10:12:10;;;;;;;11.68;9.75;;;28.60;95.10;;;;;;5093686;28;20524;-62
2023/06/18 10:14:36;;;;;;;12.55;9.73;;;28.60;95.30;;;;;;5094528;28;20056;-63
2023/06/18 10:17:18;;;;;;;13.65;10.50;;;28.80;95.20;;;;;;5094648;28;20077;-63
2023/06/18 10:20:03;;;;;;;11.13;9.93;;;28.90;94.80;;;;;;5093888;28;20051;-61
2023/06/18 10:22:35;;;;;;;10.27;9.05;;;29.00;94.80;;;;;;5093947;28;20043;-62
2023/06/18 10:25:06;;;;;;;11.13;10.02;;;28.90;94.60;;;;;;5094044;28;20109;-63
2023/06/18 10:27:33;;;;;;;11.00;9.52;;;29.00;94.80;;;;;;5094086;28;20047;-63
2023/06/18 10:30:00;;;;;;;10.10;8.98;;;29.10;94.70;;;;;;5093588;28;20048;-63
2023/06/18 10:32:28;;;;;;;14.88;9.80;;;29.20;94.60;;;;;;5093219;28;20533;-63
2023/06/18 10:34:59;;;;;;;10.93;9.18;;;29.40;94.30;;;;;;5092667;28;20048;-64
2023/06/18 10:37:26;;;;;;;11.13;9.07;;;29.50;93.80;;;;;;5093777;28;20101;-63
2023/06/18 10:39:54;;;;;;;10.88;9.77;;;29.60;93.90;;;;;;5092877;28;20052;-62
2023/06/18 10:42:20;;;;;;;11.52;9.35;;;29.50;93.90;;;;;;5079741;28;20052;-63
2023/06/18 10:44:47;;;;;;;10.32;9.13;;;29.50;93.70;;;;;;5071657;28;20049;-65
2023/06/18 10:47:23;;;;;;;12.77;8.77;;;29.50;93.30;;;;;;5071714;28;20057;-63
2023/06/18 10:50:02;;;;;;;9.40;8.40;;;29.50;93.00;;;;;;5090678;28;20058;-63
2023/06/18 10:52:32;;;;;;;10.18;8.77;;;29.70;92.70;;;;;;5091606;28;20056;-63
2023/06/18 10:55:13;;;;;;;10.10;8.38;;;29.70;92.80;;;;;;5091853;28;20047;-63
2023/06/18 10:57:42;;;;;;;12.20;8.63;;;29.80;92.80;;;;;;5091301;28;20373;-63
2023/06/18 11:00:29;;;;;;;10.73;8.85;;;29.90;92.60;;;;;;5073152;28;20048;-63
2023/06/18 11:03:00;;;;;;;10.57;8.88;;;30.00;91.90;;;;;;5073380;28;20045;-64
2023/06/18 11:05:34;;;;;;;10.65;8.43;;;30.00;91.90;;;;;;5073072;28;20048;-63
2023/06/18 11:08:01;;;;;;;10.70;9.27;;;30.20;91.30;;;;;;5080739;28;20411;-64
2023/06/18 11:10:36;;;;;;;9.30;8.40;;;30.10;91.60;;;;;;5093175;28;20048;-63
2023/06/18 11:13:06;;;;;;;11.73;9.07;;;30.30;91.60;;;;;;5092512;28;20375;-63
2023/06/18 11:15:34;;;;;;;9.38;8.20;;;30.40;91.30;;;;;;5093302;28;20052;-63
2023/06/18 11:18:01;;;;;;;10.43;8.43;;;30.40;91.50;;;;;;5092624;28;20101;-62
2023/06/18 11:20:33;;;;;;;9.80;8.77;;;30.30;91.10;;;;;;5092394;28;20117;-64
2023/06/18 11:23:01;;;;;;;9.90;8.38;;;30.10;90.40;;;;;;5092562;28;20044;-62
2023/06/18 11:25:28;;;;;;;8.70;7.90;;;29.90;90.90;;;;;;5092977;28;20055;-63
2023/06/18 11:27:58;;;;;;;8.63;7.82;;;30.10;91.10;;;;;;5092624;28;20048;-63
2023/06/18 11:30:25;;;;;;;9.38;8.30;;;30.10;90.80;;;;;;5092702;28;20418;-63
2023/06/18 11:32:51;;;;;;;9.45;8.30;;;30.20;91.00;;;;;;5092406;28;20048;-61
2023/06/18 11:35:17;;;;;;;9.77;8.07;;;30.30;91.10;;;;;;5092725;28;20486;-62
2023/06/18 11:37:45;;;;;;;7.65;6.88;;;30.50;91.10;;;;;;5092385;28;20043;-63
2023/06/18 11:40:12;;;;;;;8.32;6.53;;;30.80;90.40;;;;;;5092675;28;20040;-63
2023/06/18 11:42:50;;;;;;;7.50;6.80;;;30.90;88.30;;;;;;5092172;28;20050;-63
2023/06/18 11:45:17;;;;;;;8.45;7.03;;;31.10;86.30;;;;;;5092734;28;20480;-64
2023/06/18 11:47:49;;;;;;;8.07;6.97;;;31.20;86.10;;;;;;5092873;28;20056;-63
2023/06/18 11:50:17;;;;;;;7.35;6.65;;;31.40;84.70;;;;;;5072649;28;20081;-63
2023/06/18 11:52:44;;;;;;;8.57;6.68;;;31.10;83.80;;;;;;5072274;28;20049;-63
2023/06/18 11:55:11;;;;;;;7.63;6.65;;;31.10;84.90;;;;;;5072707;28;20052;-63
2023/06/18 11:57:38;;;;;;;7.65;6.90;;;31.10;83.70;;;;;;5072637;28;20079;-64
2023/06/18 12:00:08;;;;;;;7.68;6.97;;;31.20;84.40;;;;;;5091377;28;20050;-62
2023/06/18 12:02:38;;;;;;;7.22;6.50;;;31.20;84.50;;;;;;5092035;28;20040;-64
2023/06/18 12:05:05;;;;;;;8.63;6.97;;;31.30;84.70;;;;;;5092744;28;20101;-63
2023/06/18 12:07:32;;;;;;;9.05;7.53;;;31.30;84.60;;;;;;5091543;28;20048;-64
2023/06/18 12:10:05;;;;;;;7.75;6.90;;;31.10;82.70;;;;;;5092381;28;20431;-64
2023/06/18 12:12:48;;;;;;;8.65;6.93;;;31.10;82.70;;;;;;5092192;28;20357;-63
2023/06/18 12:15:23;;;;;;;7.22;6.53;;;31.10;83.00;;;;;;5092765;28;20526;-63
2023/06/18 12:18:08;;;;;;;8.93;7.35;;;31.10;82.60;;;;;;5092216;28;20040;-63
2023/06/18 12:20:35;;;;;;;10.13;7.20;;;31.10;83.00;;;;;;5092811;28;20044;-62
2023/06/18 12:23:02;;;;;;;10.38;6.93;;;31.20;83.20;;;;;;5092080;28;20125;-63
2023/06/18 12:25:30;;;;;;;8.57;7.57;;;31.20;82.60;;;;;;5092650;28;20055;-64
2023/06/18 12:27:58;;;;;;;7.75;6.93;;;31.30;83.00;;;;;;5091934;28;20422;-63
2023/06/18 12:30:35;;;;;;;7.95;6.80;;;31.30;80.80;;;;;;5092256;28;20105;-63
2023/06/18 12:33:07;;;;;;;8.23;7.05;;;31.30;80.40;;;;;;5092132;28;20052;-64
2023/06/18 12:35:35;;;;;;;7.90;7.13;;;31.10;81.30;;;;;;5092371;28;20067;-63